sensor_id;sensor_type;location;lat;lon;timestamp;temperature;humidity
75489;HTU21D;64069;46.396;48.102;2023-02-28T00:00:11;0.89;93.40
75489;HTU21D;64069;46.396;48.102;2023-02-28T00:02:39;0.91;93.41
75489;HTU21D;64069;46.396;48.102;2023-02-28T00:05:06;0.93;93.40
75489;HTU21D;64069;46.396;48.102;2023-02-28T00:07:33;0.94;93.43
75489;HTU21D;64069;46.396;48.102;2023-02-28T00:09:59;0.93;93.46
75489;HTU21D;64069;46.396;48.102;2023-02-28T00:12:26;0.93;93.52
75489;HTU21D;64069;46.396;48.102;2023-02-28T00:14:52;0.93;93.56
75489;HTU21D;64069;46.396;48.102;2023-02-28T00:17:18;0.94;93.58
75489;HTU21D;64069;46.396;48.102;2023-02-28T00:19:48;0.94;93.56
75489;HTU21D;64069;46.396;48.102;2023-02-28T00:22:18;0.96;93.55
75489;HTU21D;64069;46.396;48.102;2023-02-28T00:24:45;0.98;93.53
75489;HTU21D;64069;46.396;48.102;2023-02-28T00:27:11;0.97;93.53
75489;HTU21D;64069;46.396;48.102;2023-02-28T00:29:37;0.96;93.58
75489;HTU21D;64069;46.396;48.102;2023-02-28T00:32:04;0.95;93.63
75489;HTU21D;64069;46.396;48.102;2023-02-28T00:34:30;0.96;93.69
75489;HTU21D;64069;46.396;48.102;2023-02-28T00:36:56;0.95;93.71
75489;HTU21D;64069;46.396;48.102;2023-02-28T00:39:22;0.96;93.74
75489;HTU21D;64069;46.396;48.102;2023-02-28T00:41:48;0.94;93.78
75489;HTU21D;64069;46.396;48.102;2023-02-28T00:44:14;0.95;93.82
75489;HTU21D;64069;46.396;48.102;2023-02-28T00:46:40;0.96;93.83
75489;HTU21D;64069;46.396;48.102;2023-02-28T00:49:05;0.95;93.85
75489;HTU21D;64069;46.396;48.102;2023-02-28T00:51:31;0.97;93.85
75489;HTU21D;64069;46.396;48.102;2023-02-28T00:53:57;0.97;93.87
75489;HTU21D;64069;46.396;48.102;2023-02-28T00:56:23;0.97;93.93
75489;HTU21D;64069;46.396;48.102;2023-02-28T00:58:49;0.97;93.94
75489;HTU21D;64069;46.396;48.102;2023-02-28T01:01:15;0.96;93.98
75489;HTU21D;64069;46.396;48.102;2023-02-28T01:03:41;0.95;94.04
75489;HTU21D;64069;46.396;48.102;2023-02-28T01:06:07;0.96;94.04
75489;HTU21D;64069;46.396;48.102;2023-02-28T01:08:33;0.97;94.03
75489;HTU21D;64069;46.396;48.102;2023-02-28T01:11:10;0.97;94.04
75489;HTU21D;64069;46.396;48.102;2023-02-28T01:13:36;0.96;94.07
75489;HTU21D;64069;46.396;48.102;2023-02-28T01:16:02;0.96;94.07
75489;HTU21D;64069;46.396;48.102;2023-02-28T01:18:28;0.95;94.09
75489;HTU21D;64069;46.396;48.102;2023-02-28T01:20:54;0.96;94.08
75489;HTU21D;64069;46.396;48.102;2023-02-28T01:23:21;0.97;94.07
75489;HTU21D;64069;46.396;48.102;2023-02-28T01:25:50;0.95;94.11
75489;HTU21D;64069;46.396;48.102;2023-02-28T01:28:16;0.93;94.17
75489;HTU21D;64069;46.396;48.102;2023-02-28T01:30:41;0.91;94.24
75489;HTU21D;64069;46.396;48.102;2023-02-28T01:33:07;0.91;94.28
75489;HTU21D;64069;46.396;48.102;2023-02-28T01:35:35;0.94;94.28
75489;HTU21D;64069;46.396;48.102;2023-02-28T01:38:02;0.94;94.26
75489;HTU21D;64069;46.396;48.102;2023-02-28T01:40:28;0.93;94.27
75489;HTU21D;64069;46.396;48.102;2023-02-28T01:42:54;0.91;94.28
75489;HTU21D;64069;46.396;48.102;2023-02-28T01:45:25;0.93;94.33
75489;HTU21D;64069;46.396;48.102;2023-02-28T01:47:55;0.93;94.32
75489;HTU21D;64069;46.396;48.102;2023-02-28T01:50:28;0.93;94.36
75489;HTU21D;64069;46.396;48.102;2023-02-28T01:52:56;0.93;94.37
75489;HTU21D;64069;46.396;48.102;2023-02-28T01:55:24;0.93;94.40
75489;HTU21D;64069;46.396;48.102;2023-02-28T01:57:58;0.94;94.41
75489;HTU21D;64069;46.396;48.102;2023-02-28T02:00:27;0.94;94.41
75489;HTU21D;64069;46.396;48.102;2023-02-28T02:02:57;0.95;94.43
75489;HTU21D;64069;46.396;48.102;2023-02-28T02:05:27;0.96;94.43
75489;HTU21D;64069;46.396;48.102;2023-02-28T02:08:06;0.97;94.47
75489;HTU21D;64069;46.396;48.102;2023-02-28T02:10:43;0.96;94.53
75489;HTU21D;64069;46.396;48.102;2023-02-28T02:18:45;0.98;94.52
75489;HTU21D;64069;46.396;48.102;2023-02-28T02:21:35;0.99;94.52
75489;HTU21D;64069;46.396;48.102;2023-02-28T02:27:16;1.02;94.46
75489;HTU21D;64069;46.396;48.102;2023-02-28T02:30:00;1.02;94.44
75489;HTU21D;64069;46.396;48.102;2023-02-28T02:35:06;1.05;94.40
75489;HTU21D;64069;46.396;48.102;2023-02-28T02:40:19;1.04;94.44
75489;HTU21D;64069;46.396;48.102;2023-02-28T02:42:57;1.06;94.45
75489;HTU21D;64069;46.396;48.102;2023-02-28T02:48:19;1.05;94.46
75489;HTU21D;64069;46.396;48.102;2023-02-28T02:50:49;1.05;94.48
75489;HTU21D;64069;46.396;48.102;2023-02-28T02:53:18;1.02;94.40
75489;HTU21D;64069;46.396;48.102;2023-02-28T02:55:49;1.03;94.40
75489;HTU21D;64069;46.396;48.102;2023-02-28T02:58:28;1.05;94.42
75489;HTU21D;64069;46.396;48.102;2023-02-28T03:00:58;1.04;94.49
75489;HTU21D;64069;46.396;48.102;2023-02-28T03:03:26;1.04;94.52
75489;HTU21D;64069;46.396;48.102;2023-02-28T03:06:00;1.04;94.54
75489;HTU21D;64069;46.396;48.102;2023-02-28T03:08:28;1.03;94.55
75489;HTU21D;64069;46.396;48.102;2023-02-28T03:10:58;1.03;94.57
75489;HTU21D;64069;46.396;48.102;2023-02-28T03:16:32;1.01;94.61
75489;HTU21D;64069;46.396;48.102;2023-02-28T03:22:12;0.99;94.62
75489;HTU21D;64069;46.396;48.102;2023-02-28T03:25:08;1.02;94.60
75489;HTU21D;64069;46.396;48.102;2023-02-28T03:32:58;1.08;94.56
75489;HTU21D;64069;46.396;48.102;2023-02-28T03:35:32;1.09;94.52
75489;HTU21D;64069;46.396;48.102;2023-02-28T03:38:38;1.08;94.59
75489;HTU21D;64069;46.396;48.102;2023-02-28T03:41:27;1.07;94.61
75489;HTU21D;64069;46.396;48.102;2023-02-28T03:44:01;1.05;94.63
75489;HTU21D;64069;46.396;48.102;2023-02-28T03:46:33;1.07;94.70
75489;HTU21D;64069;46.396;48.102;2023-02-28T03:51:40;1.18;94.65
75489;HTU21D;64069;46.396;48.102;2023-02-28T03:54:14;1.23;94.57
75489;HTU21D;64069;46.396;48.102;2023-02-28T03:57:05;1.24;94.54
75489;HTU21D;64069;46.396;48.102;2023-02-28T03:59:37;1.27;94.49
75489;HTU21D;64069;46.396;48.102;2023-02-28T04:02:04;1.33;94.36
75489;HTU21D;64069;46.396;48.102;2023-02-28T04:04:30;1.34;94.32
75489;HTU21D;64069;46.396;48.102;2023-02-28T04:07:07;1.35;94.31
75489;HTU21D;64069;46.396;48.102;2023-02-28T04:09:34;1.39;94.28
75489;HTU21D;64069;46.396;48.102;2023-02-28T04:12:00;1.40;94.26
75489;HTU21D;64069;46.396;48.102;2023-02-28T04:14:26;1.41;94.28
75489;HTU21D;64069;46.396;48.102;2023-02-28T04:16:53;1.45;94.28
75489;HTU21D;64069;46.396;48.102;2023-02-28T04:19:19;1.48;94.30
75489;HTU21D;64069;46.396;48.102;2023-02-28T04:21:52;1.53;94.27
75489;HTU21D;64069;46.396;48.102;2023-02-28T04:24:24;1.56;94.20
75489;HTU21D;64069;46.396;48.102;2023-02-28T04:26:53;1.57;94.17
75489;HTU21D;64069;46.396;48.102;2023-02-28T04:29:31;1.55;94.15
75489;HTU21D;64069;46.396;48.102;2023-02-28T04:32:01;1.56;94.15
75489;HTU21D;64069;46.396;48.102;2023-02-28T04:34:29;1.56;94.16
75489;HTU21D;64069;46.396;48.102;2023-02-28T04:36:56;1.56;94.19
75489;HTU21D;64069;46.396;48.102;2023-02-28T04:39:23;1.60;94.19
75489;HTU21D;64069;46.396;48.102;2023-02-28T04:41:50;1.64;94.18
75489;HTU21D;64069;46.396;48.102;2023-02-28T04:44:16;1.70;94.17
75489;HTU21D;64069;46.396;48.102;2023-02-28T04:46:43;1.77;94.11
75489;HTU21D;64069;46.396;48.102;2023-02-28T04:49:11;1.84;94.06
75489;HTU21D;64069;46.396;48.102;2023-02-28T04:51:37;1.94;93.98
75489;HTU21D;64069;46.396;48.102;2023-02-28T04:54:04;2.03;93.89
75489;HTU21D;64069;46.396;48.102;2023-02-28T04:56:30;2.12;93.81
75489;HTU21D;64069;46.396;48.102;2023-02-28T04:58:56;2.22;93.71
75489;HTU21D;64069;46.396;48.102;2023-02-28T05:01:26;2.29;93.60
75489;HTU21D;64069;46.396;48.102;2023-02-28T05:03:54;2.34;93.54
75489;HTU21D;64069;46.396;48.102;2023-02-28T05:06:22;2.37;93.58
75489;HTU21D;64069;46.396;48.102;2023-02-28T05:08:49;2.39;93.59
75489;HTU21D;64069;46.396;48.102;2023-02-28T05:11:24;2.36;93.60
75489;HTU21D;64069;46.396;48.102;2023-02-28T05:13:51;2.24;93.71
75489;HTU21D;64069;46.396;48.102;2023-02-28T05:16:18;2.14;93.88
75489;HTU21D;64069;46.396;48.102;2023-02-28T05:18:44;2.12;94.01
75489;HTU21D;64069;46.396;48.102;2023-02-28T05:21:32;2.09;94.04
75489;HTU21D;64069;46.396;48.102;2023-02-28T05:24:04;2.11;94.07
75489;HTU21D;64069;46.396;48.102;2023-02-28T05:26:30;2.21;94.03
75489;HTU21D;64069;46.396;48.102;2023-02-28T05:28:56;2.28;93.85
75489;HTU21D;64069;46.396;48.102;2023-02-28T05:31:22;2.36;93.66
75489;HTU21D;64069;46.396;48.102;2023-02-28T05:33:48;2.49;93.56
75489;HTU21D;64069;46.396;48.102;2023-02-28T05:36:14;2.54;93.28
75489;HTU21D;64069;46.396;48.102;2023-02-28T05:38:40;2.57;93.25
75489;HTU21D;64069;46.396;48.102;2023-02-28T05:41:08;2.67;93.20
75489;HTU21D;64069;46.396;48.102;2023-02-28T05:43:35;2.78;93.08
75489;HTU21D;64069;46.396;48.102;2023-02-28T05:46:07;2.85;92.97
75489;HTU21D;64069;46.396;48.102;2023-02-28T05:48:35;3.03;92.86
75489;HTU21D;64069;46.396;48.102;2023-02-28T05:51:01;3.21;92.54
75489;HTU21D;64069;46.396;48.102;2023-02-28T05:53:28;3.25;92.26
75489;HTU21D;64069;46.396;48.102;2023-02-28T05:55:55;3.29;92.22
75489;HTU21D;64069;46.396;48.102;2023-02-28T05:58:21;3.36;92.25
75489;HTU21D;64069;46.396;48.102;2023-02-28T06:00:48;3.49;92.18
75489;HTU21D;64069;46.396;48.102;2023-02-28T06:03:14;3.67;92.06
75489;HTU21D;64069;46.396;48.102;2023-02-28T06:05:40;3.84;91.76
75489;HTU21D;64069;46.396;48.102;2023-02-28T06:08:10;3.90;91.51
75489;HTU21D;64069;46.396;48.102;2023-02-28T06:10:36;3.95;91.58
75489;HTU21D;64069;46.396;48.102;2023-02-28T06:13:03;4.07;91.52
75489;HTU21D;64069;46.396;48.102;2023-02-28T06:15:29;4.14;91.49
75489;HTU21D;64069;46.396;48.102;2023-02-28T06:17:55;4.30;91.50
75489;HTU21D;64069;46.396;48.102;2023-02-28T06:20:23;4.51;91.51
75489;HTU21D;64069;46.396;48.102;2023-02-28T06:22:49;4.79;91.24
75489;HTU21D;64069;46.396;48.102;2023-02-28T06:25:17;5.01;91.00
75489;HTU21D;64069;46.396;48.102;2023-02-28T06:27:43;5.19;90.83
75489;HTU21D;64069;46.396;48.102;2023-02-28T06:30:10;5.42;90.73
75489;HTU21D;64069;46.396;48.102;2023-02-28T06:32:36;5.69;90.42
75489;HTU21D;64069;46.396;48.102;2023-02-28T06:35:03;5.94;90.10
75489;HTU21D;64069;46.396;48.102;2023-02-28T06:37:30;6.17;89.73
75489;HTU21D;64069;46.396;48.102;2023-02-28T06:39:56;6.41;89.39
75489;HTU21D;64069;46.396;48.102;2023-02-28T06:42:24;6.65;89.09
75489;HTU21D;64069;46.396;48.102;2023-02-28T06:44:57;6.83;88.88
75489;HTU21D;64069;46.396;48.102;2023-02-28T06:47:23;6.98;88.67
75489;HTU21D;64069;46.396;48.102;2023-02-28T06:49:50;7.11;88.46
75489;HTU21D;64069;46.396;48.102;2023-02-28T06:52:16;7.29;88.38
75489;HTU21D;64069;46.396;48.102;2023-02-28T06:54:42;7.54;88.23
75489;HTU21D;64069;46.396;48.102;2023-02-28T06:57:08;7.76;87.85
75489;HTU21D;64069;46.396;48.102;2023-02-28T06:59:34;7.87;87.46
75489;HTU21D;64069;46.396;48.102;2023-02-28T07:02:01;7.98;87.20
75489;HTU21D;64069;46.396;48.102;2023-02-28T07:04:28;8.12;86.98
75489;HTU21D;64069;46.396;48.102;2023-02-28T07:06:55;8.24;86.69
75489;HTU21D;64069;46.396;48.102;2023-02-28T07:09:22;8.38;86.32
75489;HTU21D;64069;46.396;48.102;2023-02-28T07:11:48;8.44;85.64
75489;HTU21D;64069;46.396;48.102;2023-02-28T07:14:14;8.52;85.58
75489;HTU21D;64069;46.396;48.102;2023-02-28T07:16:40;8.56;84.93
75489;HTU21D;64069;46.396;48.102;2023-02-28T07:19:06;8.47;84.35
75489;HTU21D;64069;46.396;48.102;2023-02-28T07:21:32;8.37;84.17
75489;HTU21D;64069;46.396;48.102;2023-02-28T07:23:58;8.45;84.34
75489;HTU21D;64069;46.396;48.102;2023-02-28T07:26:24;8.60;84.10
75489;HTU21D;64069;46.396;48.102;2023-02-28T07:28:50;8.75;83.81
75489;HTU21D;64069;46.396;48.102;2023-02-28T07:31:16;8.90;83.47
75489;HTU21D;64069;46.396;48.102;2023-02-28T07:33:43;9.00;83.13
75489;HTU21D;64069;46.396;48.102;2023-02-28T07:36:11;9.00;82.94
75489;HTU21D;64069;46.396;48.102;2023-02-28T07:38:43;9.03;83.03
75489;HTU21D;64069;46.396;48.102;2023-02-28T07:41:09;8.97;83.05
75489;HTU21D;64069;46.396;48.102;2023-02-28T07:43:36;8.98;82.82
75489;HTU21D;64069;46.396;48.102;2023-02-28T07:46:08;8.91;82.55
75489;HTU21D;64069;46.396;48.102;2023-02-28T07:48:34;8.83;82.53
75489;HTU21D;64069;46.396;48.102;2023-02-28T07:51:01;8.80;82.43
75489;HTU21D;64069;46.396;48.102;2023-02-28T07:53:27;8.83;82.10
75489;HTU21D;64069;46.396;48.102;2023-02-28T07:56:01;8.76;81.58
75489;HTU21D;64069;46.396;48.102;2023-02-28T07:58:29;8.75;81.59
75489;HTU21D;64069;46.396;48.102;2023-02-28T08:00:56;8.85;81.33
75489;HTU21D;64069;46.396;48.102;2023-02-28T08:03:23;8.92;81.10
75489;HTU21D;64069;46.396;48.102;2023-02-28T08:05:49;9.07;80.98
75489;HTU21D;64069;46.396;48.102;2023-02-28T08:08:16;9.23;80.61
75489;HTU21D;64069;46.396;48.102;2023-02-28T08:10:42;9.34;80.35
75489;HTU21D;64069;46.396;48.102;2023-02-28T08:13:08;9.46;79.97
75489;HTU21D;64069;46.396;48.102;2023-02-28T08:15:34;9.55;79.78
75489;HTU21D;64069;46.396;48.102;2023-02-28T08:18:01;9.68;79.46
75489;HTU21D;64069;46.396;48.102;2023-02-28T08:20:27;9.80;79.24
75489;HTU21D;64069;46.396;48.102;2023-02-28T08:22:53;9.95;78.74
75489;HTU21D;64069;46.396;48.102;2023-02-28T08:25:23;10.07;78.22
75489;HTU21D;64069;46.396;48.102;2023-02-28T08:27:51;10.18;77.83
75489;HTU21D;64069;46.396;48.102;2023-02-28T08:30:18;10.31;77.57
75489;HTU21D;64069;46.396;48.102;2023-02-28T08:32:44;10.38;77.22
75489;HTU21D;64069;46.396;48.102;2023-02-28T08:35:10;10.41;76.99
75489;HTU21D;64069;46.396;48.102;2023-02-28T08:37:36;10.38;76.83
75489;HTU21D;64069;46.396;48.102;2023-02-28T08:40:02;10.39;76.65
75489;HTU21D;64069;46.396;48.102;2023-02-28T08:42:29;10.42;76.31
75489;HTU21D;64069;46.396;48.102;2023-02-28T08:44:55;10.43;76.21
75489;HTU21D;64069;46.396;48.102;2023-02-28T08:47:22;10.42;75.86
75489;HTU21D;64069;46.396;48.102;2023-02-28T08:49:48;10.39;75.78
75489;HTU21D;64069;46.396;48.102;2023-02-28T08:52:14;10.41;75.87
75489;HTU21D;64069;46.396;48.102;2023-02-28T08:54:40;10.46;75.78
75489;HTU21D;64069;46.396;48.102;2023-02-28T08:57:06;10.59;75.68
75489;HTU21D;64069;46.396;48.102;2023-02-28T08:59:32;10.70;75.36
75489;HTU21D;64069;46.396;48.102;2023-02-28T09:01:58;10.72;75.11
75489;HTU21D;64069;46.396;48.102;2023-02-28T09:04:24;10.75;75.01
75489;HTU21D;64069;46.396;48.102;2023-02-28T09:06:50;10.82;74.92
75489;HTU21D;64069;46.396;48.102;2023-02-28T09:09:16;10.94;74.86
75489;HTU21D;64069;46.396;48.102;2023-02-28T09:11:42;11.12;74.56
75489;HTU21D;64069;46.396;48.102;2023-02-28T09:14:08;11.22;74.27
75489;HTU21D;64069;46.396;48.102;2023-02-28T09:16:34;11.34;74.14
75489;HTU21D;64069;46.396;48.102;2023-02-28T09:19:00;11.38;73.82
75489;HTU21D;64069;46.396;48.102;2023-02-28T09:21:27;11.41;73.73
75489;HTU21D;64069;46.396;48.102;2023-02-28T09:23:53;11.42;73.60
75489;HTU21D;64069;46.396;48.102;2023-02-28T09:26:26;11.43;73.59
75489;HTU21D;64069;46.396;48.102;2023-02-28T09:28:53;11.52;73.58
75489;HTU21D;64069;46.396;48.102;2023-02-28T09:31:25;11.58;73.28
75489;HTU21D;64069;46.396;48.102;2023-02-28T09:33:54;11.63;73.19
75489;HTU21D;64069;46.396;48.102;2023-02-28T09:36:21;11.67;72.81
75489;HTU21D;64069;46.396;48.102;2023-02-28T09:38:47;11.71;72.86
75489;HTU21D;64069;46.396;48.102;2023-02-28T09:41:16;11.78;72.41
75489;HTU21D;64069;46.396;48.102;2023-02-28T09:43:49;11.90;72.32
75489;HTU21D;64069;46.396;48.102;2023-02-28T09:46:31;12.08;71.87
75489;HTU21D;64069;46.396;48.102;2023-02-28T09:49:04;12.19;71.57
75489;HTU21D;64069;46.396;48.102;2023-02-28T09:54:20;12.29;71.31
75489;HTU21D;64069;46.396;48.102;2023-02-28T09:56:50;12.31;71.01
75489;HTU21D;64069;46.396;48.102;2023-02-28T10:05:07;12.78;70.44
75489;HTU21D;64069;46.396;48.102;2023-02-28T10:10:45;13.12;69.53
75489;HTU21D;64069;46.396;48.102;2023-02-28T10:13:39;13.27;69.26
75489;HTU21D;64069;46.396;48.102;2023-02-28T10:16:15;13.43;69.05
75489;HTU21D;64069;46.396;48.102;2023-02-28T10:18:47;13.50;68.78
75489;HTU21D;64069;46.396;48.102;2023-02-28T10:21:35;13.45;68.75
75489;HTU21D;64069;46.396;48.102;2023-02-28T10:24:19;13.48;68.72
75489;HTU21D;64069;46.396;48.102;2023-02-28T10:26:47;13.52;68.78
75489;HTU21D;64069;46.396;48.102;2023-02-28T10:29:13;13.58;68.52
75489;HTU21D;64069;46.396;48.102;2023-02-28T10:31:40;13.53;68.43
75489;HTU21D;64069;46.396;48.102;2023-02-28T10:34:07;13.53;68.39
75489;HTU21D;64069;46.396;48.102;2023-02-28T10:36:38;13.54;68.20
75489;HTU21D;64069;46.396;48.102;2023-02-28T10:39:40;13.54;68.09
75489;HTU21D;64069;46.396;48.102;2023-02-28T10:42:25;13.52;68.05
75489;HTU21D;64069;46.396;48.102;2023-02-28T10:45:14;13.49;68.13
75489;HTU21D;64069;46.396;48.102;2023-02-28T10:48:47;13.47;68.18
75489;HTU21D;64069;46.396;48.102;2023-02-28T10:50:52;13.45;68.27
75489;HTU21D;64069;46.396;48.102;2023-02-28T10:55:57;13.36;68.18
75489;HTU21D;64069;46.396;48.102;2023-02-28T10:58:26;13.44;68.22
75489;HTU21D;64069;46.396;48.102;2023-02-28T11:00:53;13.52;68.07
75489;HTU21D;64069;46.396;48.102;2023-02-28T11:03:25;13.52;67.72
75489;HTU21D;64069;46.396;48.102;2023-02-28T11:05:54;13.41;67.92
75489;HTU21D;64069;46.396;48.102;2023-02-28T11:08:20;13.38;68.04
75489;HTU21D;64069;46.396;48.102;2023-02-28T11:10:57;13.40;68.00
75489;HTU21D;64069;46.396;48.102;2023-02-28T11:13:34;13.38;67.80
75489;HTU21D;64069;46.396;48.102;2023-02-28T11:16:06;13.39;67.94
75489;HTU21D;64069;46.396;48.102;2023-02-28T11:21:34;13.51;67.62
75489;HTU21D;64069;46.396;48.102;2023-02-28T11:24:05;13.62;67.28
75489;HTU21D;64069;46.396;48.102;2023-02-28T11:26:42;13.70;67.17
75489;HTU21D;64069;46.396;48.102;2023-02-28T11:32:18;13.80;66.94
75489;HTU21D;64069;46.396;48.102;2023-02-28T11:34:44;13.78;67.01
75489;HTU21D;64069;46.396;48.102;2023-02-28T11:37:15;13.79;66.98
75489;HTU21D;64069;46.396;48.102;2023-02-28T11:39:43;13.81;66.92
75489;HTU21D;64069;46.396;48.102;2023-02-28T11:45:26;13.97;66.72
75489;HTU21D;64069;46.396;48.102;2023-02-28T11:48:14;14.15;66.41
75489;HTU21D;64069;46.396;48.102;2023-02-28T12:02:22;14.37;65.85
75489;HTU21D;64069;46.396;48.102;2023-02-28T12:05:05;14.33;65.78
75489;HTU21D;64069;46.396;48.102;2023-02-28T12:13:10;14.45;65.50
75489;HTU21D;64069;46.396;48.102;2023-02-28T12:16:12;14.59;65.24
75489;HTU21D;64069;46.396;48.102;2023-02-28T12:18:40;14.57;65.21
75489;HTU21D;64069;46.396;48.102;2023-02-28T12:26:44;14.56;65.33
75489;HTU21D;64069;46.396;48.102;2023-02-28T12:29:36;14.63;65.17
75489;HTU21D;64069;46.396;48.102;2023-02-28T12:34:52;14.62;65.11
75489;HTU21D;64069;46.396;48.102;2023-02-28T12:40:03;14.55;65.03
75489;HTU21D;64069;46.396;48.102;2023-02-28T12:42:39;14.54;64.93
75489;HTU21D;64069;46.396;48.102;2023-02-28T12:45:31;14.55;64.72
75489;HTU21D;64069;46.396;48.102;2023-02-28T12:48:04;14.58;64.95
75489;HTU21D;64069;46.396;48.102;2023-02-28T12:50:32;14.60;65.01
75489;HTU21D;64069;46.396;48.102;2023-02-28T12:53:06;14.62;64.96
75489;HTU21D;64069;46.396;48.102;2023-02-28T13:11:39;14.33;64.82
75489;HTU21D;64069;46.396;48.102;2023-02-28T13:16:55;14.19;64.87
75489;HTU21D;64069;46.396;48.102;2023-02-28T13:19:28;14.13;64.88
75489;HTU21D;64069;46.396;48.102;2023-02-28T13:21:57;14.06;65.08
75489;HTU21D;64069;46.396;48.102;2023-02-28T13:29:36;13.92;65.37
75489;HTU21D;64069;46.396;48.102;2023-02-28T13:34:38;13.89;65.51
75489;HTU21D;64069;46.396;48.102;2023-02-28T13:39:53;13.84;65.55
75489;HTU21D;64069;46.396;48.102;2023-02-28T13:42:32;13.77;65.71
75489;HTU21D;64069;46.396;48.102;2023-02-28T13:47:44;13.59;66.07
75489;HTU21D;64069;46.396;48.102;2023-02-28T13:53:51;13.32;66.51
75489;HTU21D;64069;46.396;48.102;2023-02-28T13:56:18;13.17;66.79
75489;HTU21D;64069;46.396;48.102;2023-02-28T13:58:53;13.01;67.04
75489;HTU21D;64069;46.396;48.102;2023-02-28T14:05:04;12.78;67.46
75489;HTU21D;64069;46.396;48.102;2023-02-28T14:07:20;12.63;67.75
75489;HTU21D;64069;46.396;48.102;2023-02-28T14:10:21;12.50;68.03
75489;HTU21D;64069;46.396;48.102;2023-02-28T14:12:57;12.32;68.40
75489;HTU21D;64069;46.396;48.102;2023-02-28T14:18:27;12.14;68.84
75489;HTU21D;64069;46.396;48.102;2023-02-28T14:20:59;12.08;69.02
75489;HTU21D;64069;46.396;48.102;2023-02-28T14:23:47;12.02;69.17
75489;HTU21D;64069;46.396;48.102;2023-02-28T14:27:24;11.92;69.35
75489;HTU21D;64069;46.396;48.102;2023-02-28T14:29:29;11.84;69.55
75489;HTU21D;64069;46.396;48.102;2023-02-28T14:32:10;11.77;69.71
75489;HTU21D;64069;46.396;48.102;2023-02-28T14:34:44;11.67;69.90
75489;HTU21D;64069;46.396;48.102;2023-02-28T14:37:30;11.57;70.08
75489;HTU21D;64069;46.396;48.102;2023-02-28T14:40:00;11.52;70.23
75489;HTU21D;64069;46.396;48.102;2023-02-28T14:42:34;11.44;70.40
75489;HTU21D;64069;46.396;48.102;2023-02-28T14:45:01;11.36;70.51
75489;HTU21D;64069;46.396;48.102;2023-02-28T14:47:31;11.28;70.69
75489;HTU21D;64069;46.396;48.102;2023-02-28T14:49:59;11.18;70.85
75489;HTU21D;64069;46.396;48.102;2023-02-28T14:52:32;11.13;71.02
75489;HTU21D;64069;46.396;48.102;2023-02-28T14:55:01;11.04;71.15
75489;HTU21D;64069;46.396;48.102;2023-02-28T14:57:31;10.96;71.32
75489;HTU21D;64069;46.396;48.102;2023-02-28T15:00:23;10.92;71.48
75489;HTU21D;64069;46.396;48.102;2023-02-28T15:02:53;10.79;71.61
75489;HTU21D;64069;46.396;48.102;2023-02-28T15:08:16;10.67;72.05
75489;HTU21D;64069;46.396;48.102;2023-02-28T15:10:49;10.63;72.06
75489;HTU21D;64069;46.396;48.102;2023-02-28T15:13:16;10.65;72.14
75489;HTU21D;64069;46.396;48.102;2023-02-28T15:18:42;10.78;72.13
75489;HTU21D;64069;46.396;48.102;2023-02-28T15:21:15;10.78;72.06
75489;HTU21D;64069;46.396;48.102;2023-02-28T15:23:46;10.80;72.16
75489;HTU21D;64069;46.396;48.102;2023-02-28T15:26:16;10.83;72.22
75489;HTU21D;64069;46.396;48.102;2023-02-28T15:28:45;10.87;72.29
75489;HTU21D;64069;46.396;48.102;2023-02-28T15:31:41;10.92;72.30
75489;HTU21D;64069;46.396;48.102;2023-02-28T15:34:21;10.92;72.40
75489;HTU21D;64069;46.396;48.102;2023-02-28T15:36:48;10.92;72.56
75489;HTU21D;64069;46.396;48.102;2023-02-28T15:39:25;10.97;72.67
75489;HTU21D;64069;46.396;48.102;2023-02-28T15:42:31;10.98;72.78
75489;HTU21D;64069;46.396;48.102;2023-02-28T15:45:01;10.98;72.86
75489;HTU21D;64069;46.396;48.102;2023-02-28T15:47:29;10.94;73.08
75489;HTU21D;64069;46.396;48.102;2023-02-28T15:49:59;10.92;73.32
75489;HTU21D;64069;46.396;48.102;2023-02-28T15:52:40;10.90;73.57
75489;HTU21D;64069;46.396;48.102;2023-02-28T15:55:16;10.86;73.61
75489;HTU21D;64069;46.396;48.102;2023-02-28T15:57:44;10.80;73.86
75489;HTU21D;64069;46.396;48.102;2023-02-28T16:00:14;10.78;74.12
75489;HTU21D;64069;46.396;48.102;2023-02-28T16:02:41;10.83;74.28
75489;HTU21D;64069;46.396;48.102;2023-02-28T16:07:38;10.84;74.52
75489;HTU21D;64069;46.396;48.102;2023-02-28T16:10:06;10.88;74.62
75489;HTU21D;64069;46.396;48.102;2023-02-28T16:12:34;10.89;74.70
75489;HTU21D;64069;46.396;48.102;2023-02-28T16:15:03;10.89;74.88
75489;HTU21D;64069;46.396;48.102;2023-02-28T16:17:34;10.88;75.02
75489;HTU21D;64069;46.396;48.102;2023-02-28T16:20:05;10.87;75.23
75489;HTU21D;64069;46.396;48.102;2023-02-28T16:22:31;10.92;75.38
75489;HTU21D;64069;46.396;48.102;2023-02-28T16:24:57;10.92;75.46
75489;HTU21D;64069;46.396;48.102;2023-02-28T16:27:32;10.87;75.69
75489;HTU21D;64069;46.396;48.102;2023-02-28T16:29:58;10.80;75.83
75489;HTU21D;64069;46.396;48.102;2023-02-28T16:32:24;10.81;76.17
75489;HTU21D;64069;46.396;48.102;2023-02-28T16:34:50;10.82;76.36
75489;HTU21D;64069;46.396;48.102;2023-02-28T16:37:19;10.84;76.56
75489;HTU21D;64069;46.396;48.102;2023-02-28T16:39:45;10.84;76.89
75489;HTU21D;64069;46.396;48.102;2023-02-28T16:42:23;10.87;77.21
75489;HTU21D;64069;46.396;48.102;2023-02-28T16:44:52;10.86;77.35
75489;HTU21D;64069;46.396;48.102;2023-02-28T16:47:19;10.79;77.65
75489;HTU21D;64069;46.396;48.102;2023-02-28T16:49:45;10.71;77.89
75489;HTU21D;64069;46.396;48.102;2023-02-28T16:52:13;10.62;78.09
75489;HTU21D;64069;46.396;48.102;2023-02-28T16:54:40;10.48;78.40
75489;HTU21D;64069;46.396;48.102;2023-02-28T16:57:20;10.38;78.75
75489;HTU21D;64069;46.396;48.102;2023-02-28T16:59:48;10.28;79.01
75489;HTU21D;64069;46.396;48.102;2023-02-28T17:02:18;10.21;79.27
75489;HTU21D;64069;46.396;48.102;2023-02-28T17:04:45;10.14;79.50
75489;HTU21D;64069;46.396;48.102;2023-02-28T17:07:13;10.08;79.78
75489;HTU21D;64069;46.396;48.102;2023-02-28T17:09:39;9.99;79.94
75489;HTU21D;64069;46.396;48.102;2023-02-28T17:12:06;9.93;80.24
75489;HTU21D;64069;46.396;48.102;2023-02-28T17:14:32;9.92;80.40
75489;HTU21D;64069;46.396;48.102;2023-02-28T17:16:58;9.85;80.54
75489;HTU21D;64069;46.396;48.102;2023-02-28T17:19:24;9.82;80.74
75489;HTU21D;64069;46.396;48.102;2023-02-28T17:21:55;9.78;80.88
75489;HTU21D;64069;46.396;48.102;2023-02-28T17:24:20;9.77;80.97
75489;HTU21D;64069;46.396;48.102;2023-02-28T17:26:46;9.72;81.34
75489;HTU21D;64069;46.396;48.102;2023-02-28T17:29:18;9.70;81.52
75489;HTU21D;64069;46.396;48.102;2023-02-28T17:31:45;9.69;81.62
75489;HTU21D;64069;46.396;48.102;2023-02-28T17:34:11;9.66;81.75
75489;HTU21D;64069;46.396;48.102;2023-02-28T17:36:44;9.60;81.78
75489;HTU21D;64069;46.396;48.102;2023-02-28T17:39:17;9.51;81.98
75489;HTU21D;64069;46.396;48.102;2023-02-28T17:41:55;9.45;82.07